createdAt,value
2023-05-09T00:00:11.141Z,5.40
2023-05-09T00:01:14.167Z,5.32
2023-05-09T00:02:17.254Z,6.00
2023-05-09T00:03:19.255Z,5.28
2023-05-09T00:04:22.312Z,5.00
2023-05-09T00:05:24.502Z,5.53
2023-05-09T00:06:28.066Z,5.72
2023-05-09T00:07:30.072Z,5.70
2023-05-09T00:08:33.035Z,5.22
2023-05-09T00:09:35.291Z,5.78
2023-05-09T00:10:38.450Z,5.20
2023-05-09T00:11:41.775Z,6.35
2023-05-09T00:12:44.846Z,6.60
2023-05-09T00:13:47.140Z,5.63
2023-05-09T00:14:51.604Z,4.85
2023-05-09T00:15:53.969Z,4.95
2023-05-09T00:16:57.302Z,5.63
2023-05-09T00:17:59.548Z,5.43
2023-05-09T00:19:03.334Z,5.00
2023-05-09T00:20:09.225Z,5.43
2023-05-09T00:21:12.377Z,5.25
2023-05-09T00:22:14.310Z,5.90
2023-05-09T00:23:17.906Z,5.82
2023-05-09T00:24:19.920Z,6.10
2023-05-09T00:25:22.842Z,5.80
2023-05-09T00:26:24.854Z,6.00
2023-05-09T00:27:30.593Z,5.38
2023-05-09T00:28:32.802Z,5.38
2023-05-09T00:29:35.746Z,5.00
2023-05-09T00:30:37.847Z,5.20
2023-05-09T00:31:40.786Z,5.38
2023-05-09T00:32:42.769Z,4.60
2023-05-09T00:33:45.692Z,5.30
2023-05-09T00:34:47.589Z,5.47
2023-05-09T00:35:50.634Z,6.18
2023-05-09T00:36:52.573Z,5.47
2023-05-09T00:37:55.687Z,5.70
2023-05-09T00:38:57.646Z,5.20
2023-05-09T00:40:00.679Z,5.43
2023-05-09T00:41:02.662Z,5.80
2023-05-09T00:42:05.823Z,5.45
2023-05-09T00:43:10.062Z,5.50
2023-05-09T00:44:12.061Z,5.22
2023-05-09T00:45:15.172Z,5.22
2023-05-09T00:46:17.389Z,5.25
2023-05-09T00:47:21.628Z,5.72
2023-05-09T00:48:23.650Z,5.75
2023-05-09T00:49:27.056Z,5.38
2023-05-09T00:50:29.023Z,6.03
2023-05-09T00:51:33.144Z,5.07
2023-05-09T00:52:35.875Z,5.60
2023-05-09T00:53:39.387Z,5.85
2023-05-09T00:54:41.451Z,5.60
2023-05-09T00:55:44.374Z,6.10
2023-05-09T00:56:46.590Z,6.18
2023-05-09T00:57:49.646Z,6.68
2023-05-09T00:58:53.255Z,5.53
2023-05-09T00:59:56.659Z,5.60
2023-05-09T01:00:59.104Z,5.60
2023-05-09T01:02:02.082Z,5.95
2023-05-09T01:03:05.062Z,5.00
2023-05-09T01:04:08.381Z,5.88
2023-05-09T01:05:11.352Z,5.65
2023-05-09T01:06:21.560Z,5.90
2023-05-09T01:07:30.429Z,6.07
2023-05-09T01:08:45.781Z,5.90
2023-05-09T01:09:56.483Z,6.80
2023-05-09T01:11:05.773Z,6.38
2023-05-09T01:12:15.061Z,5.45
2023-05-09T01:13:37.323Z,5.40
2023-05-09T01:14:52.123Z,6.10
2023-05-09T01:15:59.828Z,5.40
2023-05-09T01:17:09.109Z,6.45
2023-05-09T01:18:18.596Z,5.88
2023-05-09T01:19:36.610Z,5.80
2023-05-09T01:20:45.605Z,6.70
2023-05-09T01:21:50.362Z,6.78
2023-05-09T01:23:02.408Z,6.28
2023-05-09T01:24:22.672Z,6.25
2023-05-09T01:25:42.947Z,5.85
2023-05-09T01:26:47.938Z,6.80
2023-05-09T01:27:59.105Z,5.50
2023-05-09T01:29:26.778Z,5.40
2023-05-09T01:30:34.202Z,5.90
2023-05-09T01:31:38.502Z,6.05
2023-05-09T01:32:44.751Z,6.30
2023-05-09T01:33:51.960Z,6.85
2023-05-09T01:34:57.891Z,6.43
2023-05-09T01:36:04.652Z,6.85
2023-05-09T01:37:08.446Z,6.57
2023-05-09T01:38:13.440Z,7.75
2023-05-09T01:39:19.151Z,6.40
2023-05-09T01:40:23.103Z,6.85
2023-05-09T01:41:31.062Z,6.90
2023-05-09T01:42:41.029Z,7.78
2023-05-09T01:43:46.873Z,6.93
2023-05-09T01:44:49.814Z,6.35
2023-05-09T01:45:54.815Z,7.47
2023-05-09T01:46:59.990Z,7.05
2023-05-09T01:48:03.618Z,8.05
2023-05-09T01:49:08.253Z,7.90
2023-05-09T01:50:13.127Z,7.80
2023-05-09T01:51:16.529Z,8.25
2023-05-09T01:52:21.060Z,7.88
2023-05-09T01:53:24.688Z,7.85
2023-05-09T01:54:29.607Z,7.45
2023-05-09T01:55:34.297Z,8.07
2023-05-09T01:56:38.878Z,7.95
2023-05-09T01:57:42.127Z,7.70
2023-05-09T01:58:48.217Z,7.30
2023-05-09T01:59:50.894Z,7.03
2023-05-09T02:00:55.322Z,7.20
2023-05-09T02:01:57.877Z,8.05
2023-05-09T02:03:01.027Z,7.75
2023-05-09T02:04:05.651Z,7.38
2023-05-09T02:05:10.660Z,8.45
2023-05-09T02:06:13.828Z,8.77
2023-05-09T02:07:17.318Z,7.85
2023-05-09T02:08:21.197Z,8.52
2023-05-09T02:09:24.585Z,7.68
2023-05-09T02:10:28.331Z,7.70
2023-05-09T02:11:31.547Z,7.72
2023-05-09T02:12:33.716Z,7.50
2023-05-09T02:13:38.311Z,7.53
2023-05-09T02:14:40.439Z,7.00
2023-05-09T02:15:43.834Z,7.50
2023-05-09T02:16:47.288Z,8.13
2023-05-09T02:17:50.285Z,7.72
2023-05-09T02:18:52.252Z,7.68
2023-05-09T02:19:55.195Z,7.32
2023-05-09T02:20:57.212Z,6.60
2023-05-09T02:22:00.533Z,7.78
2023-05-09T02:23:02.671Z,8.25
2023-05-09T02:24:06.422Z,9.23
2023-05-09T02:25:10.593Z,7.25
2023-05-09T02:26:14.488Z,8.30
2023-05-09T02:27:17.205Z,8.27
2023-05-09T02:28:21.969Z,8.85
2023-05-09T02:29:28.752Z,7.80
2023-05-09T02:30:37.926Z,8.13
2023-05-09T02:31:41.061Z,9.60
2023-05-09T02:32:48.789Z,8.38
2023-05-09T02:33:52.725Z,8.15
2023-05-09T02:34:57.011Z,7.78
2023-05-09T02:35:59.281Z,8.18
2023-05-09T02:37:02.429Z,8.68
2023-05-09T02:38:04.504Z,8.38
2023-05-09T02:39:08.151Z,9.52
2023-05-09T02:40:11.785Z,9.95
2023-05-09T02:41:15.264Z,9.98
2023-05-09T02:42:20.899Z,9.02
2023-05-09T02:43:23.841Z,8.95
2023-05-09T02:44:25.810Z,9.18
2023-05-09T02:45:28.799Z,9.90
2023-05-09T02:46:31.139Z,8.82
2023-05-09T02:47:34.185Z,9.30
2023-05-09T02:48:37.655Z,9.68
2023-05-09T02:49:40.619Z,9.00
2023-05-09T02:50:43.452Z,9.05
2023-05-09T02:51:46.378Z,8.70
2023-05-09T02:52:48.392Z,9.27
2023-05-09T02:53:51.295Z,9.10
2023-05-09T02:54:53.459Z,9.32
2023-05-09T02:55:56.416Z,8.48
2023-05-09T02:56:59.160Z,9.48
2023-05-09T02:58:12.876Z,8.95
2023-05-09T02:59:17.742Z,9.52
2023-05-09T03:00:22.129Z,9.57
2023-05-09T03:01:24.156Z,9.90
2023-05-09T03:02:27.305Z,9.77
2023-05-09T03:03:30.859Z,7.97
2023-05-09T03:04:35.265Z,9.13
2023-05-09T03:05:37.232Z,9.68
2023-05-09T03:06:40.361Z,9.27
2023-05-09T03:07:42.506Z,8.38
2023-05-09T03:08:45.424Z,8.77
2023-05-09T03:09:47.397Z,10.63
2023-05-09T03:10:51.329Z,8.70
2023-05-09T03:11:53.224Z,9.02
2023-05-09T03:12:56.176Z,9.10
2023-05-09T03:13:58.105Z,8.70
2023-05-09T03:15:01.198Z,9.38
2023-05-09T03:16:03.242Z,10.18
2023-05-09T03:17:06.226Z,9.73
2023-05-09T03:18:08.216Z,9.98
2023-05-09T03:19:11.239Z,9.35
2023-05-09T03:20:15.691Z,11.23
2023-05-09T03:21:18.741Z,10.43
2023-05-09T03:22:20.809Z,10.20
2023-05-09T03:23:23.822Z,10.75
2023-05-09T03:24:28.135Z,10.90
2023-05-09T03:25:31.361Z,10.80
2023-05-09T03:26:35.563Z,11.45
2023-05-09T03:27:38.540Z,11.80
2023-05-09T03:28:40.777Z,10.38
2023-05-09T03:29:43.688Z,10.60
2023-05-09T03:30:45.732Z,10.73
2023-05-09T03:31:48.862Z,11.90
2023-05-09T03:32:51.291Z,10.73
2023-05-09T03:33:54.343Z,11.73
2023-05-09T03:34:57.249Z,10.98
2023-05-09T03:36:01.562Z,10.60
2023-05-09T03:37:04.625Z,11.07
2023-05-09T03:38:06.671Z,11.20
2023-05-09T03:39:10.036Z,11.07
2023-05-09T03:40:12.543Z,11.85
2023-05-09T03:41:17.889Z,12.18
2023-05-09T03:42:19.908Z,11.60
2023-05-09T03:43:22.859Z,11.20
2023-05-09T03:44:24.819Z,12.07
2023-05-09T03:45:27.765Z,12.68
2023-05-09T03:46:29.794Z,12.25
2023-05-09T03:47:32.764Z,13.55
2023-05-09T03:48:34.895Z,13.07
2023-05-09T03:49:37.779Z,13.73
2023-05-09T03:50:39.755Z,11.73
2023-05-09T03:51:44.138Z,13.35
2023-05-09T03:52:46.199Z,11.80
2023-05-09T03:53:49.431Z,12.43
2023-05-09T03:54:51.353Z,11.32
2023-05-09T03:55:54.255Z,12.77
2023-05-09T03:56:56.233Z,13.00
2023-05-09T03:57:59.217Z,12.65
2023-05-09T03:59:01.196Z,13.63
2023-05-09T04:00:06.135Z,11.50
2023-05-09T04:01:08.181Z,13.32
2023-05-09T04:02:11.278Z,13.38
2023-05-09T04:03:13.539Z,11.38
2023-05-09T04:04:16.508Z,11.68
2023-05-09T04:05:19.948Z,12.55
2023-05-09T04:06:22.936Z,11.60
2023-05-09T04:07:26.657Z,12.07
2023-05-09T04:08:29.712Z,12.35
2023-05-09T04:09:31.643Z,12.70
2023-05-09T04:10:34.656Z,12.68
2023-05-09T04:11:36.602Z,11.85
2023-05-09T04:12:39.576Z,12.05
2023-05-09T04:13:41.632Z,11.43
2023-05-09T04:14:46.135Z,10.93
2023-05-09T04:15:49.748Z,10.55
2023-05-09T04:16:52.684Z,12.40
2023-05-09T04:17:54.684Z,11.02
2023-05-09T04:18:57.648Z,11.52
2023-05-09T04:19:59.618Z,9.70
2023-05-09T04:21:03.254Z,10.38
2023-05-09T04:22:05.222Z,10.30
2023-05-09T04:23:09.513Z,10.45
2023-05-09T04:24:11.725Z,10.98
2023-05-09T04:25:16.123Z,11.07
2023-05-09T04:26:18.335Z,9.75
2023-05-09T04:27:22.005Z,10.30
2023-05-09T04:28:23.977Z,11.07
2023-05-09T04:29:27.194Z,10.90
2023-05-09T04:30:29.620Z,9.45
2023-05-09T04:31:32.763Z,11.15
2023-05-09T04:32:35.687Z,9.65
2023-05-09T04:33:39.420Z,8.93
2023-05-09T04:34:41.489Z,9.43
2023-05-09T04:35:44.378Z,8.52
2023-05-09T04:36:46.688Z,8.90
2023-05-09T04:37:49.646Z,8.32
2023-05-09T04:38:53.028Z,8.85
2023-05-09T04:39:56.261Z,8.18
2023-05-09T04:40:58.557Z,8.00
2023-05-09T04:42:02.667Z,8.27
2023-05-09T04:43:04.794Z,8.57
2023-05-09T04:44:08.176Z,7.80
2023-05-09T04:45:11.710Z,7.82
2023-05-09T04:46:14.833Z,8.00
2023-05-09T04:47:16.765Z,7.53
2023-05-09T04:48:19.738Z,7.03
2023-05-09T04:49:21.759Z,7.95
2023-05-09T04:50:24.681Z,6.85
2023-05-09T04:51:26.618Z,7.70
2023-05-09T04:52:29.557Z,7.30
2023-05-09T04:53:31.955Z,7.75
2023-05-09T04:54:36.222Z,8.02
2023-05-09T04:55:38.149Z,8.18
2023-05-09T04:56:41.125Z,8.35
2023-05-09T04:57:43.084Z,7.47
2023-05-09T04:58:45.999Z,7.95
2023-05-09T04:59:48.025Z,7.13
2023-05-09T05:00:51.346Z,7.95
2023-05-09T05:01:54.430Z,8.07
2023-05-09T05:02:57.625Z,7.30
2023-05-09T05:03:59.600Z,7.45
2023-05-09T05:05:11.555Z,7.78
2023-05-09T05:06:15.470Z,7.05
2023-05-09T05:07:18.841Z,7.20
2023-05-09T05:08:21.793Z,7.07
2023-05-09T05:09:23.726Z,6.75
2023-05-09T05:10:29.288Z,6.97
2023-05-09T05:11:31.272Z,6.38
2023-05-09T05:12:34.256Z,6.40
2023-05-09T05:13:36.349Z,6.35
2023-05-09T05:14:39.245Z,6.85
2023-05-09T05:15:41.302Z,6.25
2023-05-09T05:16:44.257Z,6.57
2023-05-09T05:17:46.230Z,6.53
2023-05-09T05:18:49.389Z,6.80
2023-05-09T05:19:51.282Z,7.00
2023-05-09T05:20:54.245Z,6.63
2023-05-09T05:21:56.320Z,6.10
2023-05-09T05:22:59.795Z,7.30
2023-05-09T05:24:01.777Z,6.57
2023-05-09T05:25:05.316Z,5.80
2023-05-09T05:26:08.618Z,5.88
2023-05-09T05:27:11.525Z,6.10
2023-05-09T05:28:13.554Z,6.72
2023-05-09T05:29:17.601Z,6.25
2023-05-09T05:30:21.057Z,6.75
2023-05-09T05:31:24.339Z,7.43
2023-05-09T05:32:26.340Z,5.22
2023-05-09T05:33:29.296Z,6.80
2023-05-09T05:34:31.234Z,5.90
2023-05-09T05:35:34.227Z,6.63
2023-05-09T05:36:36.184Z,6.82
2023-05-09T05:37:39.559Z,6.40
2023-05-09T05:38:41.554Z,6.07
2023-05-09T05:39:44.477Z,6.10
2023-05-09T05:40:46.579Z,6.40
2023-05-09T05:41:51.933Z,7.00
2023-05-09T05:42:54.409Z,5.65
2023-05-09T05:43:57.380Z,5.57
2023-05-09T05:45:04.201Z,5.80
2023-05-09T05:46:07.217Z,5.30
2023-05-09T05:47:09.182Z,5.40
2023-05-09T05:48:12.445Z,5.43
2023-05-09T05:49:14.411Z,5.82
2023-05-09T05:50:17.399Z,5.57
2023-05-09T05:51:19.328Z,4.93
2023-05-09T05:52:22.268Z,5.13
2023-05-09T05:53:24.254Z,4.60
2023-05-09T05:54:27.160Z,4.97
2023-05-09T05:55:29.124Z,4.20
2023-05-09T05:56:32.081Z,5.22
2023-05-09T05:57:35.446Z,5.43
2023-05-09T05:58:38.366Z,5.57
2023-05-09T05:59:40.313Z,4.63
2023-05-09T06:00:43.313Z,6.10
2023-05-09T06:01:46.803Z,5.00
2023-05-09T06:02:49.976Z,5.43
2023-05-09T06:03:54.870Z,5.45
2023-05-09T06:04:57.036Z,5.22
2023-05-09T06:06:00.208Z,5.60
2023-05-09T06:07:02.205Z,5.53
2023-05-09T06:08:05.812Z,5.07
2023-05-09T06:09:07.778Z,4.85
2023-05-09T06:10:11.257Z,4.95
2023-05-09T06:11:13.552Z,4.88
2023-05-09T06:12:17.130Z,5.43
2023-05-09T06:13:20.427Z,4.28
2023-05-09T06:14:23.406Z,4.75
2023-05-09T06:15:25.400Z,4.60
2023-05-09T06:16:28.700Z,4.70
2023-05-09T06:17:30.834Z,4.43
2023-05-09T06:18:35.567Z,3.55
2023-05-09T06:19:37.753Z,5.00
2023-05-09T06:20:40.854Z,4.85
2023-05-09T06:21:42.809Z,3.92
2023-05-09T06:22:45.747Z,4.80
2023-05-09T06:24:04.262Z,4.65
2023-05-09T06:25:10.646Z,3.85
2023-05-09T06:26:14.488Z,4.35
2023-05-09T06:27:17.461Z,5.25
2023-05-09T06:28:20.740Z,4.35
2023-05-09T06:29:23.794Z,4.50
2023-05-09T06:30:26.948Z,4.35
2023-05-09T06:31:30.745Z,3.58
2023-05-09T06:32:32.700Z,4.53
2023-05-09T06:33:35.685Z,4.65
2023-05-09T06:34:38.848Z,4.30
2023-05-09T06:35:40.774Z,4.13
2023-05-09T06:36:43.904Z,4.35
2023-05-09T06:37:48.234Z,3.97
2023-05-09T06:38:51.646Z,4.03
2023-05-09T06:39:54.519Z,4.07
2023-05-09T06:40:57.492Z,3.72
2023-05-09T06:41:59.399Z,4.28
2023-05-09T06:43:02.390Z,4.60
2023-05-09T06:44:06.789Z,4.55
2023-05-09T06:45:09.506Z,4.13
2023-05-09T06:46:12.473Z,4.43
2023-05-09T06:47:14.652Z,3.88
2023-05-09T06:48:17.944Z,4.65
2023-05-09T06:49:20.877Z,4.32
2023-05-09T06:50:23.005Z,4.03
2023-05-09T06:51:27.040Z,5.13
2023-05-09T06:52:30.030Z,4.63
2023-05-09T06:53:32.018Z,3.95
2023-05-09T06:54:34.930Z,4.45
2023-05-09T06:55:38.150Z,4.55
2023-05-09T06:56:40.216Z,4.50
2023-05-09T06:57:43.176Z,3.97
2023-05-09T06:58:45.318Z,4.47
2023-05-09T06:59:49.604Z,3.85
2023-05-09T07:00:51.649Z,4.22
2023-05-09T07:01:54.726Z,3.75
2023-05-09T07:02:57.722Z,4.57
2023-05-09T07:04:01.029Z,4.35
2023-05-09T07:05:03.090Z,3.97
2023-05-09T07:06:06.461Z,4.22
2023-05-09T07:07:08.449Z,4.13
2023-05-09T07:08:11.381Z,4.63
2023-05-09T07:09:15.329Z,3.80
2023-05-09T07:10:18.451Z,3.72
2023-05-09T07:11:21.151Z,4.80
2023-05-09T07:12:24.269Z,4.20
2023-05-09T07:13:27.202Z,4.38
2023-05-09T07:14:29.207Z,3.70
2023-05-09T07:15:41.157Z,3.75
2023-05-09T07:16:46.787Z,3.53
2023-05-09T07:17:49.909Z,3.75
2023-05-09T07:18:51.880Z,3.65
2023-05-09T07:19:54.805Z,4.53
2023-05-09T07:20:57.824Z,3.20
2023-05-09T07:21:59.888Z,4.13
2023-05-09T07:23:04.230Z,4.78
2023-05-09T07:24:06.985Z,3.85
2023-05-09T07:25:10.818Z,3.90
2023-05-09T07:26:12.819Z,3.88
2023-05-09T07:27:15.740Z,3.90
2023-05-09T07:28:19.133Z,3.70
2023-05-09T07:29:21.084Z,3.60
2023-05-09T07:30:24.123Z,3.88
2023-05-09T07:31:28.604Z,4.07
2023-05-09T07:32:30.716Z,4.40
2023-05-09T07:33:34.138Z,4.10
2023-05-09T07:34:36.372Z,4.25
2023-05-09T07:35:44.108Z,3.25
2023-05-09T07:36:46.058Z,4.10
2023-05-09T07:37:50.347Z,4.00
2023-05-09T07:38:53.477Z,3.80
2023-05-09T07:39:56.383Z,3.83
2023-05-09T07:40:58.275Z,4.03
2023-05-09T07:42:01.158Z,4.30
2023-05-09T07:43:04.110Z,3.60
2023-05-09T07:44:06.283Z,3.88
2023-05-09T07:45:10.843Z,4.20
2023-05-09T07:46:13.772Z,4.10
2023-05-09T07:47:17.208Z,3.85
2023-05-09T07:48:20.352Z,4.25
2023-05-09T07:49:23.387Z,4.55
2023-05-09T07:50:25.380Z,3.67
2023-05-09T07:51:28.326Z,4.18
2023-05-09T07:52:30.326Z,4.00
2023-05-09T07:53:33.460Z,3.88
2023-05-09T07:54:35.358Z,3.65
2023-05-09T07:55:38.321Z,3.70
2023-05-09T07:56:40.437Z,3.95
2023-05-09T07:57:43.442Z,4.20
2023-05-09T07:58:46.348Z,4.03
2023-05-09T07:59:49.358Z,4.22
2023-05-09T08:00:52.336Z,3.45
2023-05-09T08:01:54.302Z,4.32
2023-05-09T08:02:58.707Z,3.95
2023-05-09T08:04:01.813Z,4.72
2023-05-09T08:05:04.024Z,4.25
2023-05-09T08:06:07.092Z,3.17
2023-05-09T08:07:09.107Z,3.30
2023-05-09T08:08:12.197Z,4.38
2023-05-09T08:09:14.097Z,3.97
2023-05-09T08:10:17.279Z,4.07
2023-05-09T08:11:20.276Z,4.32
2023-05-09T08:12:22.500Z,3.90
2023-05-09T08:13:25.528Z,3.83
2023-05-09T08:14:27.536Z,4.43
2023-05-09T08:15:31.281Z,4.18
2023-05-09T08:16:33.239Z,4.40
2023-05-09T08:17:36.283Z,4.05
2023-05-09T08:18:39.618Z,4.65
2023-05-09T08:19:42.554Z,3.80
2023-05-09T08:20:47.757Z,4.78
2023-05-09T08:21:50.681Z,4.60
2023-05-09T08:22:52.687Z,4.60
2023-05-09T08:23:55.781Z,4.28
2023-05-09T08:24:57.682Z,4.30
2023-05-09T08:26:00.898Z,3.58
2023-05-09T08:27:02.837Z,4.50
2023-05-09T08:28:06.104Z,4.10
2023-05-09T08:29:08.012Z,4.25
2023-05-09T08:30:12.117Z,3.70
2023-05-09T08:31:14.107Z,4.45
2023-05-09T08:32:17.421Z,3.88
2023-05-09T08:33:20.487Z,3.90
2023-05-09T08:34:23.788Z,3.65
2023-05-09T08:35:26.743Z,3.85
2023-05-09T08:36:30.525Z,3.95
2023-05-09T08:37:32.422Z,4.57
2023-05-09T08:38:36.269Z,4.07
2023-05-09T08:39:39.270Z,4.43
2023-05-09T08:40:42.443Z,4.50
2023-05-09T08:41:44.670Z,3.53
2023-05-09T08:42:49.359Z,3.67
2023-05-09T08:43:52.822Z,3.13
2023-05-09T08:44:55.759Z,3.78
2023-05-09T08:46:01.405Z,3.63
2023-05-09T08:47:04.816Z,4.18
2023-05-09T08:48:08.874Z,5.03
2023-05-09T08:49:12.928Z,3.67
2023-05-09T08:50:18.385Z,3.20
2023-05-09T08:51:21.869Z,3.35
2023-05-09T08:52:24.976Z,3.83
2023-05-09T08:53:27.869Z,3.83
2023-05-09T08:54:31.218Z,3.00
2023-05-09T08:55:33.286Z,3.72
2023-05-09T08:56:36.869Z,3.95
2023-05-09T08:57:39.951Z,3.60
2023-05-09T08:58:42.527Z,4.18
2023-05-09T08:59:46.498Z,4.05
2023-05-09T09:00:51.295Z,3.55
2023-05-09T09:01:55.012Z,3.80
2023-05-09T09:02:59.596Z,3.53
2023-05-09T09:04:03.182Z,3.50
2023-05-09T09:06:11.680Z,3.47
2023-05-09T09:07:16.223Z,3.47
2023-05-09T09:08:19.912Z,3.58
2023-05-09T09:09:23.630Z,3.20
2023-05-09T09:10:29.676Z,3.00
2023-05-09T09:11:32.067Z,3.75
2023-05-09T09:12:36.998Z,3.40
2023-05-09T09:13:42.073Z,3.10
2023-05-09T09:14:48.170Z,3.88
2023-05-09T09:15:53.925Z,3.05
2023-05-09T09:16:58.420Z,3.25
2023-05-09T09:18:09.241Z,3.22
2023-05-09T09:19:17.575Z,3.00
2023-05-09T09:20:22.852Z,3.28
2023-05-09T09:21:27.571Z,3.90
2023-05-09T09:22:33.867Z,3.40
2023-05-09T09:23:40.071Z,2.92
2023-05-09T09:24:43.088Z,2.97
2023-05-09T09:25:46.502Z,3.60
2023-05-09T09:26:51.163Z,3.50
2023-05-09T09:27:53.070Z,3.30
2023-05-09T09:28:57.535Z,3.47
2023-05-09T09:30:08.537Z,2.78
2023-05-09T09:31:21.837Z,3.10
2023-05-09T09:32:34.956Z,3.40
2023-05-09T09:33:37.920Z,2.90
2023-05-09T09:34:40.821Z,3.65
2023-05-09T09:35:43.480Z,3.60
2023-05-09T09:36:48.403Z,3.80
2023-05-09T09:38:00.387Z,3.70
2023-05-09T09:39:05.936Z,3.00
2023-05-09T09:40:09.677Z,2.92
2023-05-09T09:41:13.826Z,2.65
2023-05-09T09:42:18.063Z,3.35
2023-05-09T09:43:20.010Z,2.95
2023-05-09T09:44:24.145Z,2.72
2023-05-09T09:45:29.262Z,3.30
2023-05-09T09:46:41.540Z,3.53
2023-05-09T09:47:45.506Z,3.30
2023-05-09T09:48:54.959Z,2.92
2023-05-09T09:49:57.871Z,2.08
2023-05-09T09:51:04.075Z,2.83
2023-05-09T09:52:08.330Z,3.03
2023-05-09T09:53:11.518Z,2.70
2023-05-09T09:54:14.808Z,3.50
2023-05-09T09:55:17.950Z,2.50
2023-05-09T09:56:22.211Z,3.30
2023-05-09T09:57:35.131Z,3.33
2023-05-09T09:58:38.314Z,2.55
2023-05-09T09:59:40.367Z,2.75
2023-05-09T10:00:43.330Z,2.28
2023-05-09T10:02:06.671Z,2.80
2023-05-09T10:03:15.861Z,2.70
2023-05-09T10:04:17.861Z,2.65
2023-05-09T10:05:22.473Z,2.30
2023-05-09T10:06:25.454Z,2.70
2023-05-09T10:07:34.268Z,2.28
2023-05-09T10:08:37.249Z,2.78
2023-05-09T10:09:39.207Z,2.88
2023-05-09T10:10:42.526Z,2.80
2023-05-09T10:11:45.083Z,2.38
2023-05-09T10:12:49.538Z,2.47
2023-05-09T10:13:52.478Z,2.80
2023-05-09T10:14:55.804Z,2.25
2023-05-09T10:15:59.224Z,2.08
2023-05-09T10:17:04.807Z,2.75
2023-05-09T10:18:09.140Z,2.13
2023-05-09T10:19:14.039Z,2.65
2023-05-09T10:20:18.952Z,2.58
2023-05-09T10:21:21.082Z,2.50
2023-05-09T10:22:24.811Z,2.33
2023-05-09T10:23:30.641Z,2.25
2023-05-09T10:24:35.463Z,2.65
2023-05-09T10:25:42.327Z,2.67
2023-05-09T10:26:49.540Z,3.05
2023-05-09T10:27:54.901Z,1.65
2023-05-09T10:29:02.995Z,2.72
2023-05-09T10:30:10.390Z,2.50
2023-05-09T10:31:19.468Z,2.10
2023-05-09T10:32:32.454Z,2.97
2023-05-09T10:33:44.408Z,2.35
2023-05-09T10:34:53.528Z,2.72
2023-05-09T10:35:58.927Z,2.50
2023-05-09T10:37:01.503Z,2.33
2023-05-09T10:38:05.165Z,2.17
2023-05-09T10:39:10.505Z,2.45
2023-05-09T10:40:15.338Z,2.35
2023-05-09T10:41:19.683Z,3.20
2023-05-09T10:42:23.827Z,2.53
2023-05-09T10:43:27.246Z,2.60
2023-05-09T10:44:30.421Z,2.67
2023-05-09T10:45:34.575Z,2.85
2023-05-09T10:46:38.457Z,3.10
2023-05-09T10:47:42.964Z,2.80
2023-05-09T10:48:47.255Z,3.15
2023-05-09T10:49:50.482Z,2.30
2023-05-09T10:50:53.870Z,3.20
2023-05-09T10:51:55.799Z,2.65
2023-05-09T10:53:18.301Z,2.05
2023-05-09T10:54:31.865Z,3.40
2023-05-09T10:55:37.727Z,2.10
2023-05-09T10:56:40.877Z,2.10
2023-05-09T10:57:54.986Z,2.10
2023-05-09T10:58:58.076Z,3.05
2023-05-09T11:00:00.373Z,2.38
2023-05-09T11:01:05.344Z,2.95
2023-05-09T11:02:14.160Z,2.60
2023-05-09T11:03:19.164Z,1.90
2023-05-09T11:04:22.245Z,2.30
2023-05-09T11:05:24.168Z,2.00
2023-05-09T11:06:46.410Z,2.58
2023-05-09T11:08:09.593Z,3.40
2023-05-09T11:09:33.190Z,2.28
2023-05-09T11:10:43.669Z,3.80
2023-05-09T11:11:51.755Z,3.85
2023-05-09T11:12:57.928Z,1.75
2023-05-09T11:14:01.415Z,3.42
2023-05-09T11:15:09.084Z,2.83
2023-05-09T11:16:12.067Z,2.50
2023-05-09T11:17:16.809Z,2.70
2023-05-09T11:18:19.090Z,3.17
2023-05-09T11:19:36.400Z,4.18
2023-05-09T11:20:44.941Z,3.08
2023-05-09T11:22:05.215Z,2.30
2023-05-09T11:23:11.748Z,3.88
2023-05-09T11:24:17.399Z,2.25
2023-05-09T11:25:28.383Z,3.47
2023-05-09T11:26:31.327Z,2.85
2023-05-09T11:27:40.893Z,2.60
2023-05-09T11:28:54.237Z,2.80
2023-05-09T11:29:57.478Z,2.22
2023-05-09T11:31:11.230Z,2.60
2023-05-09T11:32:15.099Z,3.03
2023-05-09T11:33:25.086Z,2.50
2023-05-09T11:34:27.039Z,2.15
2023-05-09T11:35:30.204Z,2.40
2023-05-09T11:36:35.208Z,3.13
2023-05-09T11:37:45.878Z,2.65
2023-05-09T11:38:49.062Z,2.10
2023-05-09T11:39:58.866Z,2.83
2023-05-09T11:41:03.309Z,2.70
2023-05-09T11:42:05.956Z,2.35
2023-05-09T11:43:09.565Z,2.63
2023-05-09T11:44:20.839Z,3.40
2023-05-09T11:45:24.978Z,2.35
2023-05-09T11:46:27.756Z,2.80
2023-05-09T11:47:30.947Z,3.90
2023-05-09T11:48:38.577Z,2.85
2023-05-09T11:49:44.218Z,3.15
2023-05-09T11:50:47.912Z,4.40
2023-05-09T11:51:51.095Z,2.88
2023-05-09T11:52:55.138Z,2.00
2023-05-09T11:53:57.113Z,2.88
2023-05-09T11:55:00.517Z,3.10
2023-05-09T11:56:06.390Z,2.92
2023-05-09T11:57:09.558Z,2.63
2023-05-09T11:58:12.795Z,2.25
2023-05-09T11:59:15.988Z,2.42
2023-05-09T12:00:20.500Z,2.88
2023-05-09T12:01:23.138Z,2.92
2023-05-09T12:02:26.153Z,2.55
2023-05-09T12:03:29.270Z,2.20
2023-05-09T12:04:32.035Z,3.63
2023-05-09T12:05:35.194Z,3.13
2023-05-09T12:06:38.199Z,3.17
2023-05-09T12:07:42.172Z,2.55
2023-05-09T12:08:45.034Z,3.10
2023-05-09T12:09:50.771Z,3.30
2023-05-09T12:10:52.833Z,3.60
2023-05-09T12:11:57.136Z,2.67
2023-05-09T12:13:00.052Z,2.97
2023-05-09T12:14:02.033Z,2.85
2023-05-09T12:15:08.037Z,2.45
2023-05-09T12:16:11.010Z,2.25
2023-05-09T12:17:13.956Z,2.67
2023-05-09T12:18:18.170Z,2.67
2023-05-09T12:19:20.968Z,2.70
2023-05-09T12:20:24.006Z,3.05
2023-05-09T12:21:28.370Z,2.67
2023-05-09T12:22:30.561Z,2.75
2023-05-09T12:23:36.029Z,2.40
2023-05-09T12:24:38.994Z,2.15
2023-05-09T12:25:47.403Z,3.15
2023-05-09T12:26:51.585Z,2.88
2023-05-09T12:27:57.196Z,2.60
2023-05-09T12:29:00.589Z,2.22
2023-05-09T12:30:08.340Z,2.95
2023-05-09T12:31:11.588Z,2.30
2023-05-09T12:32:16.424Z,3.25
2023-05-09T12:33:20.042Z,2.15
2023-05-09T12:34:22.088Z,2.55
2023-05-09T12:35:25.536Z,2.53
2023-05-09T12:36:28.507Z,2.55
2023-05-09T12:37:33.208Z,2.95
2023-05-09T12:38:36.195Z,2.88
2023-05-09T12:39:38.303Z,2.78
2023-05-09T12:40:41.326Z,2.63
2023-05-09T12:41:57.421Z,2.35
2023-05-09T12:43:05.651Z,2.30
2023-05-09T12:44:07.798Z,2.45
2023-05-09T12:45:11.754Z,2.47
2023-05-09T12:46:18.786Z,2.70
2023-05-09T12:47:21.883Z,3.13
2023-05-09T12:48:24.960Z,2.88
2023-05-09T12:49:28.815Z,2.95
2023-05-09T12:50:35.873Z,2.70
2023-05-09T12:51:38.822Z,2.55
2023-05-09T12:52:54.595Z,2.75
2023-05-09T12:54:05.975Z,2.83
2023-05-09T12:55:11.310Z,2.35
2023-05-09T12:56:15.139Z,4.05
2023-05-09T12:57:28.814Z,3.15
2023-05-09T12:58:34.721Z,3.10
2023-05-09T12:59:36.714Z,2.53
2023-05-09T13:00:43.735Z,3.22
2023-05-09T13:01:46.797Z,3.25
2023-05-09T13:02:52.682Z,3.53
2023-05-09T13:04:02.976Z,3.42
2023-05-09T13:05:10.897Z,3.13
2023-05-09T13:06:15.264Z,3.28
2023-05-09T13:07:18.221Z,2.95
2023-05-09T13:08:21.671Z,3.58
2023-05-09T13:09:25.846Z,3.60
2023-05-09T13:10:28.803Z,3.25
2023-05-09T13:11:31.940Z,3.10
2023-05-09T13:12:35.114Z,2.58
2023-05-09T13:13:39.233Z,2.60
2023-05-09T13:14:42.247Z,2.90
2023-05-09T13:15:45.490Z,3.90
2023-05-09T13:16:48.778Z,2.95
2023-05-09T13:17:54.442Z,3.22
2023-05-09T13:18:57.426Z,3.50
2023-05-09T13:20:00.413Z,2.70
2023-05-09T13:21:03.459Z,2.90
2023-05-09T13:22:06.443Z,2.83
2023-05-09T13:23:08.432Z,3.35
2023-05-09T13:24:11.380Z,2.95
2023-05-09T13:25:16.084Z,2.63
2023-05-09T13:26:18.217Z,2.25
2023-05-09T13:27:21.695Z,2.30
2023-05-09T13:28:23.659Z,3.00
2023-05-09T13:29:27.934Z,2.50
2023-05-09T13:30:30.980Z,3.10
2023-05-09T13:31:34.091Z,3.20
2023-05-09T13:32:36.812Z,3.10
2023-05-09T13:33:40.110Z,2.53
2023-05-09T13:34:43.208Z,2.80
2023-05-09T13:35:47.079Z,2.80
2023-05-09T13:36:50.761Z,3.10
2023-05-09T13:37:53.740Z,2.90
2023-05-09T13:38:56.668Z,2.60
2023-05-09T13:39:58.609Z,3.05
2023-05-09T13:41:01.572Z,2.95
2023-05-09T13:42:04.043Z,2.80
2023-05-09T13:43:06.959Z,2.92
2023-05-09T13:44:08.919Z,3.00
2023-05-09T13:45:13.592Z,2.80
2023-05-09T13:46:17.040Z,3.03
2023-05-09T13:47:19.111Z,2.83
2023-05-09T13:48:22.042Z,2.50
2023-05-09T13:49:24.954Z,2.78
2023-05-09T13:50:27.302Z,2.50
2023-05-09T13:51:30.233Z,2.80
2023-05-09T13:52:33.393Z,3.30
2023-05-09T13:53:37.345Z,3.33
2023-05-09T13:54:41.764Z,2.95
2023-05-09T13:55:45.541Z,3.15
2023-05-09T13:56:48.547Z,3.40
2023-05-09T13:57:51.567Z,2.90
2023-05-09T13:58:53.532Z,3.00
2023-05-09T13:59:56.530Z,3.45
2023-05-09T14:00:59.888Z,2.78
2023-05-09T14:02:03.042Z,2.60
2023-05-09T14:03:05.370Z,3.03
2023-05-09T14:04:08.590Z,3.55
2023-05-09T14:05:11.675Z,2.85
2023-05-09T14:06:15.434Z,3.35
2023-05-09T14:07:17.831Z,2.78
2023-05-09T14:08:21.455Z,2.63
2023-05-09T14:09:24.858Z,2.92
2023-05-09T14:10:27.088Z,3.65
2023-05-09T14:11:30.297Z,2.88
2023-05-09T14:12:33.442Z,2.60